sensor_id;sensor_type;location;lat;lon;timestamp;P1;durP1;ratioP1;P2;durP2;ratioP2
21305;SDS011;10812;51.838;5.838;2023-03-31T00:01:40;6.70;;;2.33;;
21305;SDS011;10812;51.838;5.838;2023-03-31T00:04:08;7.03;;;2.40;;
21305;SDS011;10812;51.838;5.838;2023-03-31T00:06:40;7.30;;;2.33;;
21305;SDS011;10812;51.838;5.838;2023-03-31T00:09:09;7.23;;;2.47;;
21305;SDS011;10812;51.838;5.838;2023-03-31T00:11:39;7.97;;;1.90;;
21305;SDS011;10812;51.838;5.838;2023-03-31T00:14:08;9.90;;;2.23;;
21305;SDS011;10812;51.838;5.838;2023-03-31T00:16:36;6.07;;;2.37;;
21305;SDS011;10812;51.838;5.838;2023-03-31T00:19:05;2.83;;;1.70;;
21305;SDS011;10812;51.838;5.838;2023-03-31T00:21:35;6.77;;;1.60;;
21305;SDS011;10812;51.838;5.838;2023-03-31T00:24:05;4.30;;;2.20;;
21305;SDS011;10812;51.838;5.838;2023-03-31T00:26:34;6.60;;;2.50;;
21305;SDS011;10812;51.838;5.838;2023-03-31T00:29:03;3.93;;;1.90;;
21305;SDS011;10812;51.838;5.838;2023-03-31T00:31:33;4.83;;;1.90;;
21305;SDS011;10812;51.838;5.838;2023-03-31T00:34:01;6.73;;;2.20;;
21305;SDS011;10812;51.838;5.838;2023-03-31T00:36:29;5.77;;;2.53;;
21305;SDS011;10812;51.838;5.838;2023-03-31T00:39:02;8.57;;;3.00;;
21305;SDS011;10812;51.838;5.838;2023-03-31T00:41:35;10.53;;;2.70;;
21305;SDS011;10812;51.838;5.838;2023-03-31T00:47:56;8.13;;;2.90;;
21305;SDS011;10812;51.838;5.838;2023-03-31T00:50:36;6.63;;;2.43;;
21305;SDS011;10812;51.838;5.838;2023-03-31T00:53:11;8.60;;;2.63;;
21305;SDS011;10812;51.838;5.838;2023-03-31T00:55:43;6.13;;;2.20;;
21305;SDS011;10812;51.838;5.838;2023-03-31T00:58:14;2.50;;;1.70;;
21305;SDS011;10812;51.838;5.838;2023-03-31T01:00:45;6.10;;;2.30;;
21305;SDS011;10812;51.838;5.838;2023-03-31T01:03:14;5.20;;;2.20;;
21305;SDS011;10812;51.838;5.838;2023-03-31T01:05:44;6.63;;;2.47;;
21305;SDS011;10812;51.838;5.838;2023-03-31T01:08:15;7.07;;;2.03;;
21305;SDS011;10812;51.838;5.838;2023-03-31T01:10:51;7.77;;;1.93;;
21305;SDS011;10812;51.838;5.838;2023-03-31T01:13:21;7.47;;;2.07;;
21305;SDS011;10812;51.838;5.838;2023-03-31T01:15:51;3.73;;;1.60;;
21305;SDS011;10812;51.838;5.838;2023-03-31T01:18:19;5.30;;;1.47;;
21305;SDS011;10812;51.838;5.838;2023-03-31T01:26:56;6.50;;;2.17;;
21305;SDS011;10812;51.838;5.838;2023-03-31T01:29:44;4.43;;;1.97;;
21305;SDS011;10812;51.838;5.838;2023-03-31T01:41:41;4.90;;;1.80;;
21305;SDS011;10812;51.838;5.838;2023-03-31T01:44:17;5.13;;;2.10;;
21305;SDS011;10812;51.838;5.838;2023-03-31T01:46:50;5.37;;;2.27;;
21305;SDS011;10812;51.838;5.838;2023-03-31T01:49:23;6.30;;;2.27;;
21305;SDS011;10812;51.838;5.838;2023-03-31T01:51:58;5.03;;;1.90;;
21305;SDS011;10812;51.838;5.838;2023-03-31T01:54:32;6.67;;;2.77;;
21305;SDS011;10812;51.838;5.838;2023-03-31T01:57:10;5.00;;;2.50;;
21305;SDS011;10812;51.838;5.838;2023-03-31T01:59:43;5.50;;;1.93;;
21305;SDS011;10812;51.838;5.838;2023-03-31T02:02:16;4.83;;;2.67;;
21305;SDS011;10812;51.838;5.838;2023-03-31T02:04:51;8.30;;;2.20;;
21305;SDS011;10812;51.838;5.838;2023-03-31T02:07:25;5.23;;;1.87;;
21305;SDS011;10812;51.838;5.838;2023-03-31T02:10:00;7.03;;;2.30;;
21305;SDS011;10812;51.838;5.838;2023-03-31T02:12:32;6.73;;;2.23;;
21305;SDS011;10812;51.838;5.838;2023-03-31T02:15:03;5.50;;;2.10;;
21305;SDS011;10812;51.838;5.838;2023-03-31T02:17:35;7.43;;;1.87;;
21305;SDS011;10812;51.838;5.838;2023-03-31T02:20:08;3.73;;;1.80;;
21305;SDS011;10812;51.838;5.838;2023-03-31T02:22:41;5.50;;;2.23;;
21305;SDS011;10812;51.838;5.838;2023-03-31T02:25:13;8.10;;;2.23;;
21305;SDS011;10812;51.838;5.838;2023-03-31T02:27:47;5.13;;;1.70;;
21305;SDS011;10812;51.838;5.838;2023-03-31T02:30:20;11.73;;;2.20;;
21305;SDS011;10812;51.838;5.838;2023-03-31T02:32:48;6.13;;;2.00;;
21305;SDS011;10812;51.838;5.838;2023-03-31T02:35:17;6.70;;;1.87;;
21305;SDS011;10812;51.838;5.838;2023-03-31T02:37:47;8.53;;;1.83;;
21305;SDS011;10812;51.838;5.838;2023-03-31T02:40:16;8.87;;;2.43;;
21305;SDS011;10812;51.838;5.838;2023-03-31T02:42:47;7.10;;;1.83;;
21305;SDS011;10812;51.838;5.838;2023-03-31T02:45:38;8.77;;;1.60;;
21305;SDS011;10812;51.838;5.838;2023-03-31T02:48:10;5.80;;;1.30;;
21305;SDS011;10812;51.838;5.838;2023-03-31T02:50:50;5.70;;;1.37;;
21305;SDS011;10812;51.838;5.838;2023-03-31T02:53:28;6.60;;;1.43;;
21305;SDS011;10812;51.838;5.838;2023-03-31T02:56:08;8.27;;;1.97;;
21305;SDS011;10812;51.838;5.838;2023-03-31T02:58:50;6.13;;;1.50;;
21305;SDS011;10812;51.838;5.838;2023-03-31T03:07:00;4.93;;;1.47;;
21305;SDS011;10812;51.838;5.838;2023-03-31T03:16:15;5.83;;;1.93;;
21305;SDS011;10812;51.838;5.838;2023-03-31T03:18:56;7.90;;;1.57;;
21305;SDS011;10812;51.838;5.838;2023-03-31T03:21:25;8.60;;;2.10;;
21305;SDS011;10812;51.838;5.838;2023-03-31T03:23:53;9.97;;;2.00;;
21305;SDS011;10812;51.838;5.838;2023-03-31T03:26:22;7.63;;;2.00;;
21305;SDS011;10812;51.838;5.838;2023-03-31T03:28:53;7.20;;;1.43;;
21305;SDS011;10812;51.838;5.838;2023-03-31T03:31:23;10.13;;;1.83;;
21305;SDS011;10812;51.838;5.838;2023-03-31T03:33:52;12.50;;;2.20;;
21305;SDS011;10812;51.838;5.838;2023-03-31T03:36:21;7.43;;;2.00;;
21305;SDS011;10812;51.838;5.838;2023-03-31T03:41:55;6.50;;;2.67;;
21305;SDS011;10812;51.838;5.838;2023-03-31T03:44:23;5.93;;;2.77;;
21305;SDS011;10812;51.838;5.838;2023-03-31T03:46:52;7.30;;;1.87;;
21305;SDS011;10812;51.838;5.838;2023-03-31T03:49:20;11.10;;;2.30;;
21305;SDS011;10812;51.838;5.838;2023-03-31T03:51:49;10.03;;;2.63;;
21305;SDS011;10812;51.838;5.838;2023-03-31T03:54:17;8.83;;;2.10;;
21305;SDS011;10812;51.838;5.838;2023-03-31T03:56:45;11.20;;;3.50;;
21305;SDS011;10812;51.838;5.838;2023-03-31T03:59:13;8.80;;;2.37;;
21305;SDS011;10812;51.838;5.838;2023-03-31T04:01:42;11.87;;;2.00;;
21305;SDS011;10812;51.838;5.838;2023-03-31T04:04:11;6.30;;;2.77;;
21305;SDS011;10812;51.838;5.838;2023-03-31T04:06:39;7.60;;;2.30;;
21305;SDS011;10812;51.838;5.838;2023-03-31T04:09:08;6.93;;;2.47;;
21305;SDS011;10812;51.838;5.838;2023-03-31T04:11:36;6.07;;;2.20;;
21305;SDS011;10812;51.838;5.838;2023-03-31T04:14:04;11.17;;;3.23;;
21305;SDS011;10812;51.838;5.838;2023-03-31T04:16:32;8.63;;;2.97;;
21305;SDS011;10812;51.838;5.838;2023-03-31T04:19:03;15.87;;;4.40;;
21305;SDS011;10812;51.838;5.838;2023-03-31T04:21:33;12.17;;;3.97;;
21305;SDS011;10812;51.838;5.838;2023-03-31T04:24:02;14.80;;;4.70;;
21305;SDS011;10812;51.838;5.838;2023-03-31T04:26:31;5.70;;;2.67;;
21305;SDS011;10812;51.838;5.838;2023-03-31T04:29:09;8.97;;;3.53;;
21305;SDS011;10812;51.838;5.838;2023-03-31T04:31:39;12.07;;;3.37;;
21305;SDS011;10812;51.838;5.838;2023-03-31T04:34:09;6.60;;;2.40;;
21305;SDS011;10812;51.838;5.838;2023-03-31T04:36:41;9.37;;;3.20;;
21305;SDS011;10812;51.838;5.838;2023-03-31T04:39:13;9.77;;;2.60;;
21305;SDS011;10812;51.838;5.838;2023-03-31T04:41:43;6.27;;;2.07;;
21305;SDS011;10812;51.838;5.838;2023-03-31T04:44:11;9.60;;;1.90;;
21305;SDS011;10812;51.838;5.838;2023-03-31T04:46:39;7.80;;;2.17;;
21305;SDS011;10812;51.838;5.838;2023-03-31T04:49:07;7.57;;;2.40;;
21305;SDS011;10812;51.838;5.838;2023-03-31T04:51:35;5.07;;;2.80;;
21305;SDS011;10812;51.838;5.838;2023-03-31T04:54:05;6.87;;;2.40;;
21305;SDS011;10812;51.838;5.838;2023-03-31T04:56:33;7.00;;;3.03;;
21305;SDS011;10812;51.838;5.838;2023-03-31T04:59:01;6.07;;;2.27;;
21305;SDS011;10812;51.838;5.838;2023-03-31T05:01:30;9.80;;;2.43;;
21305;SDS011;10812;51.838;5.838;2023-03-31T05:04:01;8.00;;;3.27;;
21305;SDS011;10812;51.838;5.838;2023-03-31T05:06:30;10.67;;;2.73;;
21305;SDS011;10812;51.838;5.838;2023-03-31T05:08:59;5.27;;;1.80;;
21305;SDS011;10812;51.838;5.838;2023-03-31T05:11:28;9.97;;;2.30;;
21305;SDS011;10812;51.838;5.838;2023-03-31T05:13:57;6.80;;;2.33;;
21305;SDS011;10812;51.838;5.838;2023-03-31T05:16:25;7.97;;;2.03;;
21305;SDS011;10812;51.838;5.838;2023-03-31T05:18:53;5.80;;;2.20;;
21305;SDS011;10812;51.838;5.838;2023-03-31T05:21:21;7.80;;;2.20;;
21305;SDS011;10812;51.838;5.838;2023-03-31T05:23:52;9.93;;;2.73;;
21305;SDS011;10812;51.838;5.838;2023-03-31T05:41:06;9.87;;;3.00;;
21305;SDS011;10812;51.838;5.838;2023-03-31T05:43:35;7.07;;;2.33;;
21305;SDS011;10812;51.838;5.838;2023-03-31T05:46:03;7.63;;;2.03;;
21305;SDS011;10812;51.838;5.838;2023-03-31T05:48:33;9.67;;;3.27;;
21305;SDS011;10812;51.838;5.838;2023-03-31T05:51:03;7.43;;;2.57;;
21305;SDS011;10812;51.838;5.838;2023-03-31T05:53:32;8.20;;;2.43;;
21305;SDS011;10812;51.838;5.838;2023-03-31T05:56:01;9.07;;;2.57;;
21305;SDS011;10812;51.838;5.838;2023-03-31T05:58:34;9.97;;;2.27;;
21305;SDS011;10812;51.838;5.838;2023-03-31T06:01:03;9.97;;;2.40;;
21305;SDS011;10812;51.838;5.838;2023-03-31T06:03:34;6.17;;;2.10;;
21305;SDS011;10812;51.838;5.838;2023-03-31T06:06:03;10.70;;;2.50;;
21305;SDS011;10812;51.838;5.838;2023-03-31T06:08:33;4.13;;;1.60;;
21305;SDS011;10812;51.838;5.838;2023-03-31T06:11:04;7.63;;;2.57;;
21305;SDS011;10812;51.838;5.838;2023-03-31T06:13:35;15.63;;;6.00;;
21305;SDS011;10812;51.838;5.838;2023-03-31T06:16:03;5.00;;;2.10;;
21305;SDS011;10812;51.838;5.838;2023-03-31T06:18:33;8.27;;;1.90;;
21305;SDS011;10812;51.838;5.838;2023-03-31T06:21:02;2.43;;;1.30;;
21305;SDS011;10812;51.838;5.838;2023-03-31T06:23:31;6.80;;;1.60;;
21305;SDS011;10812;51.838;5.838;2023-03-31T06:26:00;3.73;;;1.17;;
21305;SDS011;10812;51.838;5.838;2023-03-31T06:28:31;4.17;;;1.27;;
21305;SDS011;10812;51.838;5.838;2023-03-31T06:31:02;3.93;;;1.40;;
21305;SDS011;10812;51.838;5.838;2023-03-31T06:33:32;5.33;;;1.50;;
21305;SDS011;10812;51.838;5.838;2023-03-31T06:36:01;5.73;;;1.43;;
21305;SDS011;10812;51.838;5.838;2023-03-31T06:38:31;4.77;;;1.17;;
21305;SDS011;10812;51.838;5.838;2023-03-31T06:41:00;3.03;;;1.40;;
21305;SDS011;10812;51.838;5.838;2023-03-31T06:43:28;6.97;;;1.70;;
21305;SDS011;10812;51.838;5.838;2023-03-31T06:45:56;5.53;;;1.63;;
21305;SDS011;10812;51.838;5.838;2023-03-31T06:48:26;6.13;;;1.77;;
21305;SDS011;10812;51.838;5.838;2023-03-31T06:50:55;4.47;;;1.23;;
21305;SDS011;10812;51.838;5.838;2023-03-31T06:53:26;7.63;;;1.80;;
21305;SDS011;10812;51.838;5.838;2023-03-31T06:55:55;6.00;;;1.60;;
21305;SDS011;10812;51.838;5.838;2023-03-31T06:58:23;4.80;;;1.87;;
21305;SDS011;10812;51.838;5.838;2023-03-31T07:00:54;3.20;;;1.37;;
21305;SDS011;10812;51.838;5.838;2023-03-31T07:03:22;3.70;;;1.43;;
21305;SDS011;10812;51.838;5.838;2023-03-31T07:05:53;8.67;;;1.97;;
21305;SDS011;10812;51.838;5.838;2023-03-31T07:08:21;2.50;;;1.40;;
21305;SDS011;10812;51.838;5.838;2023-03-31T07:10:52;2.93;;;1.37;;
21305;SDS011;10812;51.838;5.838;2023-03-31T07:13:23;8.70;;;1.80;;
21305;SDS011;10812;51.838;5.838;2023-03-31T07:15:52;4.50;;;1.90;;
21305;SDS011;10812;51.838;5.838;2023-03-31T07:18:21;4.90;;;1.40;;
21305;SDS011;10812;51.838;5.838;2023-03-31T07:20:52;4.13;;;1.53;;
21305;SDS011;10812;51.838;5.838;2023-03-31T07:23:21;4.73;;;1.50;;
21305;SDS011;10812;51.838;5.838;2023-03-31T07:25:49;7.00;;;2.10;;
21305;SDS011;10812;51.838;5.838;2023-03-31T07:28:17;9.27;;;1.60;;
21305;SDS011;10812;51.838;5.838;2023-03-31T07:30:46;2.90;;;1.37;;
21305;SDS011;10812;51.838;5.838;2023-03-31T07:33:14;2.80;;;1.87;;
21305;SDS011;10812;51.838;5.838;2023-03-31T07:35:42;5.87;;;1.27;;
21305;SDS011;10812;51.838;5.838;2023-03-31T07:38:26;5.80;;;1.60;;
21305;SDS011;10812;51.838;5.838;2023-03-31T07:40:54;4.63;;;1.40;;
21305;SDS011;10812;51.838;5.838;2023-03-31T07:43:34;4.00;;;1.40;;
21305;SDS011;10812;51.838;5.838;2023-03-31T07:46:02;7.80;;;1.43;;
21305;SDS011;10812;51.838;5.838;2023-03-31T07:48:31;7.20;;;1.20;;
21305;SDS011;10812;51.838;5.838;2023-03-31T07:51:00;6.53;;;1.67;;
21305;SDS011;10812;51.838;5.838;2023-03-31T07:53:30;3.83;;;1.20;;
21305;SDS011;10812;51.838;5.838;2023-03-31T07:55:58;3.53;;;1.00;;
21305;SDS011;10812;51.838;5.838;2023-03-31T07:58:26;4.30;;;1.30;;
21305;SDS011;10812;51.838;5.838;2023-03-31T08:00:54;4.40;;;2.07;;
21305;SDS011;10812;51.838;5.838;2023-03-31T08:03:22;5.57;;;1.70;;
21305;SDS011;10812;51.838;5.838;2023-03-31T08:05:51;5.97;;;1.60;;
21305;SDS011;10812;51.838;5.838;2023-03-31T08:08:20;5.87;;;1.90;;
21305;SDS011;10812;51.838;5.838;2023-03-31T08:10:50;6.13;;;1.80;;
21305;SDS011;10812;51.838;5.838;2023-03-31T08:13:18;4.07;;;2.13;;
21305;SDS011;10812;51.838;5.838;2023-03-31T08:15:47;2.47;;;1.87;;
21305;SDS011;10812;51.838;5.838;2023-03-31T08:18:15;10.30;;;2.47;;
21305;SDS011;10812;51.838;5.838;2023-03-31T08:20:43;9.80;;;2.23;;
21305;SDS011;10812;51.838;5.838;2023-03-31T08:23:15;4.23;;;2.00;;
21305;SDS011;10812;51.838;5.838;2023-03-31T08:25:43;8.40;;;3.10;;
21305;SDS011;10812;51.838;5.838;2023-03-31T08:28:12;7.03;;;2.90;;
21305;SDS011;10812;51.838;5.838;2023-03-31T08:30:41;10.33;;;3.13;;
21305;SDS011;10812;51.838;5.838;2023-03-31T08:33:09;6.90;;;2.80;;
21305;SDS011;10812;51.838;5.838;2023-03-31T08:35:38;11.57;;;2.07;;
21305;SDS011;10812;51.838;5.838;2023-03-31T08:38:06;6.37;;;2.60;;
21305;SDS011;10812;51.838;5.838;2023-03-31T08:40:35;4.50;;;2.17;;
21305;SDS011;10812;51.838;5.838;2023-03-31T08:43:07;6.17;;;2.00;;
21305;SDS011;10812;51.838;5.838;2023-03-31T08:45:43;7.60;;;2.50;;
21305;SDS011;10812;51.838;5.838;2023-03-31T08:48:15;6.37;;;2.20;;
21305;SDS011;10812;51.838;5.838;2023-03-31T08:50:52;7.90;;;2.57;;
21305;SDS011;10812;51.838;5.838;2023-03-31T08:53:24;8.20;;;1.80;;
21305;SDS011;10812;51.838;5.838;2023-03-31T08:55:55;5.37;;;2.10;;
21305;SDS011;10812;51.838;5.838;2023-03-31T08:58:31;7.43;;;1.93;;
21305;SDS011;10812;51.838;5.838;2023-03-31T09:01:08;6.87;;;2.10;;
21305;SDS011;10812;51.838;5.838;2023-03-31T09:03:47;7.23;;;2.37;;
21305;SDS011;10812;51.838;5.838;2023-03-31T09:06:28;10.07;;;3.13;;
21305;SDS011;10812;51.838;5.838;2023-03-31T09:09:04;6.33;;;2.63;;
21305;SDS011;10812;51.838;5.838;2023-03-31T09:11:42;9.53;;;3.17;;
21305;SDS011;10812;51.838;5.838;2023-03-31T09:14:19;9.17;;;2.60;;
21305;SDS011;10812;51.838;5.838;2023-03-31T09:16:56;14.40;;;3.30;;
21305;SDS011;10812;51.838;5.838;2023-03-31T09:19:35;9.73;;;2.90;;
21305;SDS011;10812;51.838;5.838;2023-03-31T09:22:08;5.37;;;2.83;;
21305;SDS011;10812;51.838;5.838;2023-03-31T09:24:43;10.77;;;3.27;;
21305;SDS011;10812;51.838;5.838;2023-03-31T09:27:19;8.20;;;3.10;;
21305;SDS011;10812;51.838;5.838;2023-03-31T09:29:48;11.37;;;3.43;;
21305;SDS011;10812;51.838;5.838;2023-03-31T09:32:21;10.70;;;3.00;;
21305;SDS011;10812;51.838;5.838;2023-03-31T09:34:52;6.63;;;3.43;;
21305;SDS011;10812;51.838;5.838;2023-03-31T09:37:23;8.30;;;2.77;;
21305;SDS011;10812;51.838;5.838;2023-03-31T09:51:19;8.17;;;2.47;;
21305;SDS011;10812;51.838;5.838;2023-03-31T09:53:52;8.17;;;2.67;;
21305;SDS011;10812;51.838;5.838;2023-03-31T09:56:32;8.33;;;2.60;;
21305;SDS011;10812;51.838;5.838;2023-03-31T09:59:18;7.87;;;2.67;;
21305;SDS011;10812;51.838;5.838;2023-03-31T10:01:48;8.00;;;2.67;;
21305;SDS011;10812;51.838;5.838;2023-03-31T10:04:20;9.07;;;3.30;;
21305;SDS011;10812;51.838;5.838;2023-03-31T10:06:51;16.10;;;4.90;;
21305;SDS011;10812;51.838;5.838;2023-03-31T10:09:23;9.53;;;2.37;;
21305;SDS011;10812;51.838;5.838;2023-03-31T10:11:54;6.70;;;1.93;;
21305;SDS011;10812;51.838;5.838;2023-03-31T10:14:24;6.40;;;2.00;;
21305;SDS011;10812;51.838;5.838;2023-03-31T10:16:58;10.43;;;2.13;;
21305;SDS011;10812;51.838;5.838;2023-03-31T10:19:31;8.27;;;2.60;;
21305;SDS011;10812;51.838;5.838;2023-03-31T10:22:02;10.60;;;2.40;;
21305;SDS011;10812;51.838;5.838;2023-03-31T10:24:36;8.17;;;2.07;;
21305;SDS011;10812;51.838;5.838;2023-03-31T10:27:06;7.60;;;2.20;;
21305;SDS011;10812;51.838;5.838;2023-03-31T10:29:42;4.80;;;1.80;;
21305;SDS011;10812;51.838;5.838;2023-03-31T10:32:13;7.73;;;2.33;;
21305;SDS011;10812;51.838;5.838;2023-03-31T10:34:44;6.53;;;2.67;;
21305;SDS011;10812;51.838;5.838;2023-03-31T10:37:15;7.63;;;2.00;;
21305;SDS011;10812;51.838;5.838;2023-03-31T10:39:45;7.40;;;2.17;;
21305;SDS011;10812;51.838;5.838;2023-03-31T10:42:18;8.00;;;2.57;;
21305;SDS011;10812;51.838;5.838;2023-03-31T10:44:48;7.63;;;2.17;;
21305;SDS011;10812;51.838;5.838;2023-03-31T10:47:17;9.47;;;2.80;;
21305;SDS011;10812;51.838;5.838;2023-03-31T10:49:48;8.37;;;2.50;;
21305;SDS011;10812;51.838;5.838;2023-03-31T10:52:20;11.50;;;2.33;;
21305;SDS011;10812;51.838;5.838;2023-03-31T10:54:50;10.63;;;2.20;;
21305;SDS011;10812;51.838;5.838;2023-03-31T10:57:23;7.50;;;2.90;;
21305;SDS011;10812;51.838;5.838;2023-03-31T11:00:02;12.43;;;2.87;;
21305;SDS011;10812;51.838;5.838;2023-03-31T11:05:45;7.67;;;2.40;;
21305;SDS011;10812;51.838;5.838;2023-03-31T11:08:24;5.13;;;1.60;;
21305;SDS011;10812;51.838;5.838;2023-03-31T11:11:05;6.63;;;2.30;;
21305;SDS011;10812;51.838;5.838;2023-03-31T11:13:45;6.37;;;1.60;;
21305;SDS011;10812;51.838;5.838;2023-03-31T11:16:21;5.33;;;1.60;;
21305;SDS011;10812;51.838;5.838;2023-03-31T11:19:01;4.83;;;1.73;;
21305;SDS011;10812;51.838;5.838;2023-03-31T11:21:41;6.30;;;1.83;;
21305;SDS011;10812;51.838;5.838;2023-03-31T11:24:25;5.30;;;1.70;;
21305;SDS011;10812;51.838;5.838;2023-03-31T11:27:05;8.67;;;2.03;;
21305;SDS011;10812;51.838;5.838;2023-03-31T11:29:52;7.77;;;2.13;;
21305;SDS011;10812;51.838;5.838;2023-03-31T11:32:29;8.73;;;2.23;;
21305;SDS011;10812;51.838;5.838;2023-03-31T11:35:11;7.87;;;1.93;;
21305;SDS011;10812;51.838;5.838;2023-03-31T11:37:57;7.00;;;2.20;;
21305;SDS011;10812;51.838;5.838;2023-03-31T11:40:50;9.10;;;2.30;;
21305;SDS011;10812;51.838;5.838;2023-03-31T11:43:26;6.20;;;1.80;;
21305;SDS011;10812;51.838;5.838;2023-03-31T11:46:00;6.80;;;2.10;;
21305;SDS011;10812;51.838;5.838;2023-03-31T11:48:34;5.03;;;1.50;;
21305;SDS011;10812;51.838;5.838;2023-03-31T11:51:09;6.43;;;2.03;;
21305;SDS011;10812;51.838;5.838;2023-03-31T11:53:41;7.70;;;1.70;;
21305;SDS011;10812;51.838;5.838;2023-03-31T11:56:12;8.70;;;2.20;;
21305;SDS011;10812;51.838;5.838;2023-03-31T11:58:43;5.97;;;2.10;;
21305;SDS011;10812;51.838;5.838;2023-03-31T12:01:14;7.60;;;2.07;;
21305;SDS011;10812;51.838;5.838;2023-03-31T12:03:51;7.03;;;1.60;;
21305;SDS011;10812;51.838;5.838;2023-03-31T12:06:24;18.00;;;2.60;;
21305;SDS011;10812;51.838;5.838;2023-03-31T12:09:00;9.37;;;1.73;;
21305;SDS011;10812;51.838;5.838;2023-03-31T12:11:37;8.80;;;2.83;;
21305;SDS011;10812;51.838;5.838;2023-03-31T12:14:15;8.00;;;2.30;;
21305;SDS011;10812;51.838;5.838;2023-03-31T12:16:54;5.83;;;2.57;;
21305;SDS011;10812;51.838;5.838;2023-03-31T12:19:26;9.67;;;2.00;;
21305;SDS011;10812;51.838;5.838;2023-03-31T12:22:03;6.93;;;2.27;;
21305;SDS011;10812;51.838;5.838;2023-03-31T12:24:37;8.60;;;1.67;;
21305;SDS011;10812;51.838;5.838;2023-03-31T12:27:07;7.40;;;1.93;;
21305;SDS011;10812;51.838;5.838;2023-03-31T12:29:41;6.97;;;2.40;;
21305;SDS011;10812;51.838;5.838;2023-03-31T12:32:11;7.60;;;1.87;;
21305;SDS011;10812;51.838;5.838;2023-03-31T12:34:43;5.70;;;2.00;;
21305;SDS011;10812;51.838;5.838;2023-03-31T12:37:21;3.93;;;1.80;;
21305;SDS011;10812;51.838;5.838;2023-03-31T12:40:14;5.77;;;2.07;;
21305;SDS011;10812;51.838;5.838;2023-03-31T12:42:57;7.13;;;1.50;;
21305;SDS011;10812;51.838;5.838;2023-03-31T12:45:35;7.53;;;1.77;;
21305;SDS011;10812;51.838;5.838;2023-03-31T12:48:14;5.87;;;1.73;;
21305;SDS011;10812;51.838;5.838;2023-03-31T12:51:09;5.77;;;1.33;;
21305;SDS011;10812;51.838;5.838;2023-03-31T12:53:50;3.97;;;1.43;;
21305;SDS011;10812;51.838;5.838;2023-03-31T12:56:34;5.77;;;1.00;;
21305;SDS011;10812;51.838;5.838;2023-03-31T12:59:42;4.73;;;1.20;;
21305;SDS011;10812;51.838;5.838;2023-03-31T13:02:17;3.83;;;1.80;;
21305;SDS011;10812;51.838;5.838;2023-03-31T13:04:52;4.57;;;1.03;;
21305;SDS011;10812;51.838;5.838;2023-03-31T13:07:38;3.17;;;0.83;;
21305;SDS011;10812;51.838;5.838;2023-03-31T13:10:24;5.77;;;1.00;;
21305;SDS011;10812;51.838;5.838;2023-03-31T13:12:57;3.60;;;1.77;;
21305;SDS011;10812;51.838;5.838;2023-03-31T13:15:30;3.30;;;1.33;;
21305;SDS011;10812;51.838;5.838;2023-03-31T13:18:00;2.50;;;1.17;;
21305;SDS011;10812;51.838;5.838;2023-03-31T13:20:31;3.77;;;1.27;;
21305;SDS011;10812;51.838;5.838;2023-03-31T13:23:03;3.97;;;1.30;;
21305;SDS011;10812;51.838;5.838;2023-03-31T13:25:43;4.17;;;1.40;;
21305;SDS011;10812;51.838;5.838;2023-03-31T13:28:14;4.27;;;1.40;;
21305;SDS011;10812;51.838;5.838;2023-03-31T13:31:02;4.10;;;1.60;;
21305;SDS011;10812;51.838;5.838;2023-03-31T13:33:32;2.93;;;1.50;;
21305;SDS011;10812;51.838;5.838;2023-03-31T13:36:18;4.53;;;1.17;;
21305;SDS011;10812;51.838;5.838;2023-03-31T13:39:10;6.73;;;1.60;;
21305;SDS011;10812;51.838;5.838;2023-03-31T13:41:56;5.90;;;1.67;;
21305;SDS011;10812;51.838;5.838;2023-03-31T13:44:46;6.93;;;1.40;;
21305;SDS011;10812;51.838;5.838;2023-03-31T13:47:47;6.53;;;1.90;;
21305;SDS011;10812;51.838;5.838;2023-03-31T13:50:38;6.63;;;1.73;;
21305;SDS011;10812;51.838;5.838;2023-03-31T13:53:24;5.60;;;1.53;;
21305;SDS011;10812;51.838;5.838;2023-03-31T13:56:21;6.20;;;1.40;;
21305;SDS011;10812;51.838;5.838;2023-03-31T14:05:23;4.13;;;1.47;;
21305;SDS011;10812;51.838;5.838;2023-03-31T14:07:57;11.60;;;3.13;;
21305;SDS011;10812;51.838;5.838;2023-03-31T14:10:30;7.07;;;1.93;;
21305;SDS011;10812;51.838;5.838;2023-03-31T14:13:06;6.27;;;1.70;;
21305;SDS011;10812;51.838;5.838;2023-03-31T14:15:37;8.43;;;1.60;;
21305;SDS011;10812;51.838;5.838;2023-03-31T14:18:11;5.47;;;1.20;;
21305;SDS011;10812;51.838;5.838;2023-03-31T14:20:45;5.43;;;1.20;;
21305;SDS011;10812;51.838;5.838;2023-03-31T14:23:21;7.20;;;2.77;;
21305;SDS011;10812;51.838;5.838;2023-03-31T14:25:58;5.93;;;1.40;;
21305;SDS011;10812;51.838;5.838;2023-03-31T14:28:38;3.53;;;1.17;;
21305;SDS011;10812;51.838;5.838;2023-03-31T14:31:27;3.90;;;1.60;;
21305;SDS011;10812;51.838;5.838;2023-03-31T14:34:06;4.77;;;1.90;;
21305;SDS011;10812;51.838;5.838;2023-03-31T14:36:43;3.30;;;0.73;;
21305;SDS011;10812;51.838;5.838;2023-03-31T14:39:24;4.33;;;1.37;;
21305;SDS011;10812;51.838;5.838;2023-03-31T14:41:57;4.93;;;1.90;;
21305;SDS011;10812;51.838;5.838;2023-03-31T14:44:29;4.57;;;0.80;;
21305;SDS011;10812;51.838;5.838;2023-03-31T14:46:57;3.97;;;1.30;;
21305;SDS011;10812;51.838;5.838;2023-03-31T14:49:29;5.07;;;0.90;;
21305;SDS011;10812;51.838;5.838;2023-03-31T14:52:04;4.50;;;1.10;;
21305;SDS011;10812;51.838;5.838;2023-03-31T14:54:42;2.23;;;1.10;;
21305;SDS011;10812;51.838;5.838;2023-03-31T14:57:15;3.63;;;1.67;;
21305;SDS011;10812;51.838;5.838;2023-03-31T14:59:46;2.67;;;1.00;;
21305;SDS011;10812;51.838;5.838;2023-03-31T15:02:18;3.13;;;1.17;;
21305;SDS011;10812;51.838;5.838;2023-03-31T15:04:59;5.17;;;1.60;;
21305;SDS011;10812;51.838;5.838;2023-03-31T15:07:29;7.13;;;1.73;;
21305;SDS011;10812;51.838;5.838;2023-03-31T15:09:58;6.80;;;2.40;;
21305;SDS011;10812;51.838;5.838;2023-03-31T15:12:26;4.80;;;1.10;;
21305;SDS011;10812;51.838;5.838;2023-03-31T15:14:56;7.43;;;1.97;;
21305;SDS011;10812;51.838;5.838;2023-03-31T15:17:29;6.97;;;1.53;;
21305;SDS011;10812;51.838;5.838;2023-03-31T15:20:19;6.10;;;2.30;;
21305;SDS011;10812;51.838;5.838;2023-03-31T15:22:53;3.60;;;1.00;;
21305;SDS011;10812;51.838;5.838;2023-03-31T15:25:23;3.90;;;1.20;;
21305;SDS011;10812;51.838;5.838;2023-03-31T15:27:55;4.67;;;1.70;;
21305;SDS011;10812;51.838;5.838;2023-03-31T15:30:27;4.03;;;1.07;;
21305;SDS011;10812;51.838;5.838;2023-03-31T15:32:56;5.10;;;1.57;;
21305;SDS011;10812;51.838;5.838;2023-03-31T15:35:45;2.70;;;1.00;;
21305;SDS011;10812;51.838;5.838;2023-03-31T15:38:13;5.60;;;2.30;;
21305;SDS011;10812;51.838;5.838;2023-03-31T15:40:44;4.20;;;1.10;;
21305;SDS011;10812;51.838;5.838;2023-03-31T15:43:17;6.17;;;1.70;;
21305;SDS011;10812;51.838;5.838;2023-03-31T15:45:53;3.50;;;1.20;;
21305;SDS011;10812;51.838;5.838;2023-03-31T15:48:24;5.73;;;1.13;;
21305;SDS011;10812;51.838;5.838;2023-03-31T15:51:01;3.10;;;1.80;;
21305;SDS011;10812;51.838;5.838;2023-03-31T15:53:34;2.83;;;0.90;;
21305;SDS011;10812;51.838;5.838;2023-03-31T15:56:04;2.57;;;1.07;;
21305;SDS011;10812;51.838;5.838;2023-03-31T15:58:53;0.60;;;0.40;;
21305;SDS011;10812;51.838;5.838;2023-03-31T16:01:23;3.10;;;0.73;;
21305;SDS011;10812;51.838;5.838;2023-03-31T16:03:58;1.30;;;0.40;;
21305;SDS011;10812;51.838;5.838;2023-03-31T16:06:31;0.60;;;0.40;;
21305;SDS011;10812;51.838;5.838;2023-03-31T16:09:10;1.13;;;0.53;;
21305;SDS011;10812;51.838;5.838;2023-03-31T16:11:43;1.27;;;0.40;;
21305;SDS011;10812;51.838;5.838;2023-03-31T16:14:14;3.10;;;0.83;;
21305;SDS011;10812;51.838;5.838;2023-03-31T16:16:48;2.83;;;0.97;;
21305;SDS011;10812;51.838;5.838;2023-03-31T16:19:19;0.87;;;0.40;;
21305;SDS011;10812;51.838;5.838;2023-03-31T16:21:52;1.73;;;0.50;;
21305;SDS011;10812;51.838;5.838;2023-03-31T16:24:27;2.73;;;0.60;;
21305;SDS011;10812;51.838;5.838;2023-03-31T16:26:58;1.87;;;0.87;;
21305;SDS011;10812;51.838;5.838;2023-03-31T16:29:31;2.50;;;1.10;;
21305;SDS011;10812;51.838;5.838;2023-03-31T16:32:08;3.60;;;0.70;;